createdAt,value
2018-08-10T00:01:40.740Z,4.25
2018-08-10T00:04:09.098Z,5.70
2018-08-10T00:06:37.459Z,7.00
2018-08-10T00:09:08.804Z,6.20
2018-08-10T00:11:37.131Z,4.90
2018-08-10T00:14:05.590Z,3.15
2018-08-10T00:16:33.936Z,3.27
2018-08-10T00:19:02.311Z,3.12
2018-08-10T00:21:30.662Z,3.55
2018-08-10T00:23:59.316Z,3.90
2018-08-10T00:26:27.744Z,2.72
2018-08-10T00:28:56.080Z,4.67
2018-08-10T00:31:24.464Z,3.20
2018-08-10T00:33:53.600Z,3.52
2018-08-10T00:36:21.931Z,2.17
2018-08-10T00:38:50.331Z,3.25
2018-08-10T00:41:18.854Z,4.17
2018-08-10T00:43:47.314Z,3.67
2018-08-10T00:46:15.732Z,2.70
2018-08-10T00:48:44.156Z,2.52
2018-08-10T00:51:12.500Z,1.80
2018-08-10T00:53:40.889Z,2.75
2018-08-10T00:56:09.327Z,2.90
2018-08-10T00:58:37.641Z,2.35
2018-08-10T01:01:06.055Z,1.92
2018-08-10T01:03:34.443Z,2.77
2018-08-10T01:06:02.813Z,2.17
2018-08-10T01:08:31.171Z,2.75
2018-08-10T01:10:59.545Z,1.75
2018-08-10T01:13:28.134Z,1.37
2018-08-10T01:15:56.483Z,1.67
2018-08-10T01:18:24.941Z,1.17
2018-08-10T01:20:53.374Z,1.65
2018-08-10T01:23:21.721Z,1.37
2018-08-10T01:25:50.035Z,1.02
2018-08-10T01:28:18.450Z,0.72
2018-08-10T01:30:46.795Z,0.80
2018-08-10T01:33:15.151Z,1.30
2018-08-10T01:35:43.550Z,1.65
2018-08-10T01:38:12.057Z,0.70
2018-08-10T01:40:40.343Z,0.65
2018-08-10T01:43:08.647Z,1.87
2018-08-10T01:45:37.025Z,0.55
2018-08-10T01:48:06.534Z,0.60
2018-08-10T01:50:34.964Z,1.10
2018-08-10T01:53:03.538Z,0.90
2018-08-10T01:55:31.866Z,0.93
2018-08-10T01:58:00.288Z,1.17
2018-08-10T02:00:28.781Z,2.05
2018-08-10T02:02:57.256Z,1.30
2018-08-10T02:05:25.584Z,1.05
2018-08-10T02:07:53.994Z,0.70
2018-08-10T02:10:22.292Z,2.42
2018-08-10T02:12:52.018Z,0.53
2018-08-10T02:15:20.487Z,0.70
2018-08-10T02:17:48.886Z,1.35
2018-08-10T02:20:19.816Z,0.72
2018-08-10T02:22:48.523Z,1.30
2018-08-10T02:25:18.440Z,0.50
2018-08-10T02:27:47.708Z,1.65
2018-08-10T02:30:17.442Z,1.10
2018-08-10T02:32:46.816Z,0.82
2018-08-10T02:35:15.522Z,1.27
2018-08-10T02:37:44.068Z,1.25
2018-08-10T02:40:17.189Z,2.10
2018-08-10T02:42:46.668Z,1.27
2018-08-10T02:45:15.707Z,0.75
2018-08-10T02:47:44.554Z,0.60
2018-08-10T02:50:13.040Z,2.30
2018-08-10T02:52:41.410Z,0.50
2018-08-10T02:55:10.722Z,0.90
2018-08-10T02:57:39.290Z,0.55
2018-08-10T03:00:10.227Z,1.02
2018-08-10T03:02:38.574Z,0.50
2018-08-10T03:05:07.923Z,1.35
2018-08-10T03:07:36.514Z,0.62
2018-08-10T03:10:06.417Z,1.40
2018-08-10T03:12:34.852Z,0.75
2018-08-10T03:15:03.197Z,0.70
2018-08-10T03:17:31.537Z,1.12
2018-08-10T03:19:59.850Z,0.80
2018-08-10T03:22:28.193Z,0.60
2018-08-10T03:24:56.778Z,1.17
2018-08-10T03:27:25.113Z,0.90
2018-08-10T03:29:53.503Z,0.50
2018-08-10T03:32:21.837Z,2.30
2018-08-10T03:34:50.204Z,2.00
2018-08-10T03:37:18.561Z,1.70
2018-08-10T03:39:46.887Z,0.72
2018-08-10T03:42:15.374Z,0.98
2018-08-10T03:44:43.730Z,0.85
2018-08-10T03:47:12.144Z,1.75
2018-08-10T03:49:40.537Z,0.70
2018-08-10T03:52:08.840Z,1.32
2018-08-10T03:54:37.180Z,0.98
2018-08-10T03:57:05.882Z,1.20
2018-08-10T03:59:34.228Z,1.22
2018-08-10T04:02:02.796Z,1.07
2018-08-10T04:04:31.217Z,1.12
2018-08-10T04:06:59.845Z,1.30
2018-08-10T04:09:28.230Z,1.30
2018-08-10T04:11:56.637Z,0.93
2018-08-10T04:14:24.959Z,3.45
2018-08-10T04:16:53.303Z,0.78
2018-08-10T04:19:21.669Z,1.52
2018-08-10T04:21:50.044Z,0.85
2018-08-10T04:24:18.437Z,1.55
2018-08-10T04:26:46.888Z,1.47
2018-08-10T04:29:15.217Z,1.00
2018-08-10T04:31:43.700Z,2.02
2018-08-10T04:34:12.105Z,0.85
2018-08-10T04:36:40.439Z,1.17
2018-08-10T04:39:10.861Z,1.75
2018-08-10T04:41:39.239Z,2.08
2018-08-10T04:44:07.645Z,2.52
2018-08-10T04:46:36.035Z,2.10
2018-08-10T04:49:04.491Z,2.92
2018-08-10T04:51:32.965Z,1.35
2018-08-10T04:54:01.296Z,3.45
2018-08-10T04:56:29.593Z,0.88
2018-08-10T04:58:58.115Z,1.45
2018-08-10T05:01:26.611Z,1.35
2018-08-10T05:03:54.989Z,1.62
2018-08-10T05:06:23.343Z,1.10
2018-08-10T05:08:51.811Z,1.87
2018-08-10T05:11:20.217Z,1.98
2018-08-10T05:13:48.868Z,1.35
2018-08-10T05:16:17.217Z,0.80
2018-08-10T05:18:45.671Z,1.87
2018-08-10T05:21:14.087Z,1.32
2018-08-10T05:23:42.540Z,1.30
2018-08-10T05:26:12.807Z,1.95
2018-08-10T05:28:41.309Z,1.15
2018-08-10T05:31:09.877Z,2.27
2018-08-10T05:33:38.365Z,1.62
2018-08-10T05:36:07.010Z,2.98
2018-08-10T05:38:35.416Z,1.95
2018-08-10T05:41:03.761Z,3.45
2018-08-10T05:43:32.214Z,4.08
2018-08-10T05:46:00.685Z,2.52
2018-08-10T05:48:33.234Z,6.72
2018-08-10T05:51:01.652Z,4.47
2018-08-10T05:53:29.988Z,3.42
2018-08-10T05:55:58.448Z,3.50
2018-08-10T05:58:26.798Z,2.27
2018-08-10T06:00:56.385Z,2.17
2018-08-10T06:03:25.999Z,1.22
2018-08-10T06:05:54.356Z,5.25
2018-08-10T06:08:22.830Z,4.97
2018-08-10T06:10:51.299Z,2.95
2018-08-10T06:13:19.677Z,2.60
2018-08-10T06:15:48.080Z,2.47
2018-08-10T06:18:16.453Z,1.72
2018-08-10T06:20:44.782Z,3.05
2018-08-10T06:23:13.236Z,1.42
2018-08-10T06:25:41.572Z,2.22
2018-08-10T06:28:10.025Z,4.83
2018-08-10T06:30:38.380Z,2.05
2018-08-10T06:33:06.736Z,2.22
2018-08-10T06:35:35.186Z,1.77
2018-08-10T06:38:03.604Z,1.55
2018-08-10T06:40:31.991Z,2.30
2018-08-10T06:43:00.367Z,2.35
2018-08-10T06:45:28.664Z,4.10
2018-08-10T06:47:56.982Z,2.55
2018-08-10T06:50:25.348Z,1.40
2018-08-10T06:52:53.719Z,3.00
2018-08-10T06:55:22.174Z,1.35
2018-08-10T06:57:50.701Z,1.87
2018-08-10T07:00:19.060Z,1.62
2018-08-10T07:02:47.771Z,2.20
2018-08-10T07:05:16.231Z,1.50
2018-08-10T07:07:44.540Z,1.65
2018-08-10T07:10:13.186Z,1.12
2018-08-10T07:12:41.534Z,1.50
2018-08-10T07:15:09.901Z,1.40
2018-08-10T07:17:38.245Z,2.40
2018-08-10T07:20:07.186Z,1.50
2018-08-10T07:22:35.669Z,2.12
2018-08-10T07:25:04.261Z,1.20
2018-08-10T07:27:32.655Z,1.82
2018-08-10T07:30:01.054Z,2.42
2018-08-10T07:32:29.535Z,1.30
2018-08-10T07:34:57.902Z,4.75
2018-08-10T07:37:26.359Z,1.95
2018-08-10T07:39:55.024Z,1.95
2018-08-10T07:42:23.341Z,1.92
2018-08-10T07:44:51.659Z,1.60
2018-08-10T07:47:19.989Z,1.67
2018-08-10T07:49:48.369Z,1.05
2018-08-10T07:52:16.938Z,1.22
2018-08-10T07:54:45.283Z,1.42
2018-08-10T07:57:13.795Z,1.98
2018-08-10T07:59:42.285Z,1.98
2018-08-10T08:02:10.763Z,1.57
2018-08-10T08:04:39.186Z,1.80
2018-08-10T08:07:07.593Z,1.30
2018-08-10T08:09:36.331Z,1.30
2018-08-10T08:12:04.799Z,1.40
2018-08-10T08:14:33.396Z,1.42
2018-08-10T08:17:01.881Z,1.25
2018-08-10T08:19:30.255Z,1.82
2018-08-10T08:22:08.771Z,1.85
2018-08-10T08:24:37.743Z,2.00
2018-08-10T08:27:07.071Z,3.25
2018-08-10T08:29:36.171Z,1.15
2018-08-10T08:32:05.349Z,1.57
2018-08-10T08:34:33.918Z,3.42
2018-08-10T08:37:03.393Z,1.72
2018-08-10T08:40:28.856Z,1.35
2018-08-10T08:42:57.471Z,1.02
2018-08-10T08:46:05.727Z,3.95
2018-08-10T08:48:35.680Z,2.27
2018-08-10T08:51:06.088Z,1.82
2018-08-10T08:53:34.675Z,0.90
2018-08-10T08:56:08.687Z,1.80
2018-08-10T08:58:37.860Z,1.77
2018-08-10T09:01:07.111Z,2.20
2018-08-10T09:04:49.832Z,1.85
2018-08-10T09:07:18.560Z,1.27
2018-08-10T09:09:46.978Z,0.85
2018-08-10T09:12:15.497Z,0.75
2018-08-10T09:14:50.880Z,1.35
2018-08-10T09:17:19.491Z,0.80
2018-08-10T09:19:47.840Z,2.25
2018-08-10T09:22:16.238Z,0.60
2018-08-10T09:24:44.598Z,0.78
2018-08-10T09:27:13.010Z,1.27
2018-08-10T09:29:41.451Z,1.80
2018-08-10T09:32:11.687Z,1.67
2018-08-10T09:34:40.040Z,0.85
2018-08-10T09:37:09.175Z,0.70
2018-08-10T09:39:37.494Z,2.22
2018-08-10T09:42:06.448Z,4.28
2018-08-10T09:44:35.105Z,0.55
2018-08-10T09:47:04.017Z,1.50
2018-08-10T09:49:35.972Z,0.75
2018-08-10T09:52:04.520Z,0.78
2018-08-10T09:54:33.027Z,0.82
2018-08-10T09:57:04.674Z,1.15
2018-08-10T09:59:32.980Z,1.60
2018-08-10T10:02:06.721Z,1.98
2018-08-10T10:04:35.106Z,1.45
2018-08-10T10:07:03.839Z,0.93
2018-08-10T10:09:32.357Z,1.52
2018-08-10T10:12:00.994Z,1.75
2018-08-10T10:14:29.369Z,1.35
2018-08-10T10:16:57.825Z,3.15
2018-08-10T10:19:27.195Z,1.00
2018-08-10T10:21:55.564Z,1.42
2018-08-10T10:24:23.995Z,1.12
2018-08-10T10:26:52.474Z,0.53
2018-08-10T10:29:20.850Z,0.80
2018-08-10T10:31:49.407Z,1.50
2018-08-10T10:34:17.901Z,0.88
2018-08-10T10:36:46.284Z,0.65
2018-08-10T10:39:14.781Z,0.78
2018-08-10T10:41:43.149Z,2.83
2018-08-10T10:44:11.572Z,1.80
2018-08-10T10:46:40.087Z,1.12
2018-08-10T10:49:08.618Z,0.98
2018-08-10T10:51:37.028Z,1.15
2018-08-10T10:54:05.411Z,1.92
2018-08-10T10:56:33.898Z,1.20
2018-08-10T10:59:02.325Z,0.70
2018-08-10T11:01:30.712Z,0.85
2018-08-10T11:03:59.071Z,1.50
2018-08-10T11:06:27.558Z,1.82
2018-08-10T11:08:55.784Z,1.05
2018-08-10T11:11:24.352Z,1.07
2018-08-10T11:13:52.668Z,1.55
2018-08-10T11:16:21.074Z,0.70
2018-08-10T11:18:49.404Z,2.67
2018-08-10T11:21:17.816Z,1.42
2018-08-10T11:23:46.154Z,1.10
2018-08-10T11:26:14.511Z,1.17
2018-08-10T11:28:42.938Z,1.60
2018-08-10T11:31:11.458Z,1.75
2018-08-10T11:33:39.841Z,0.78
2018-08-10T11:36:08.221Z,3.17
2018-08-10T11:38:36.885Z,1.72
2018-08-10T11:41:05.329Z,2.00
2018-08-10T11:43:33.693Z,3.17
2018-08-10T11:46:02.154Z,2.42
2018-08-10T11:48:30.613Z,1.85
2018-08-10T11:50:58.973Z,1.95
2018-08-10T11:53:27.413Z,0.93
2018-08-10T11:55:55.863Z,4.08
2018-08-10T11:58:25.058Z,0.98
2018-08-10T12:00:53.584Z,1.90
2018-08-10T12:03:22.029Z,0.65
2018-08-10T12:05:50.446Z,0.65
2018-08-10T12:08:18.786Z,0.68
2018-08-10T12:10:47.151Z,1.60
2018-08-10T12:13:15.639Z,1.57
2018-08-10T12:15:44.095Z,1.30
2018-08-10T12:18:12.504Z,0.90
2018-08-10T12:20:40.973Z,1.40
2018-08-10T12:23:09.316Z,1.82
2018-08-10T12:25:37.708Z,0.50
2018-08-10T12:28:06.099Z,6.08
2018-08-10T12:30:34.559Z,0.60
2018-08-10T12:33:02.974Z,1.32
2018-08-10T12:35:31.408Z,0.82
2018-08-10T12:37:59.825Z,1.67
2018-08-10T12:40:28.202Z,1.05
2018-08-10T12:42:56.604Z,1.52
2018-08-10T12:45:25.136Z,0.88
2018-08-10T12:47:53.579Z,0.80
2018-08-10T12:50:22.346Z,0.72
2018-08-10T12:52:50.671Z,1.15
2018-08-10T12:55:19.100Z,1.85
2018-08-10T12:58:18.154Z,0.70
2018-08-10T13:00:46.566Z,1.40
2018-08-10T13:03:14.975Z,1.10
2018-08-10T13:05:43.527Z,2.87
2018-08-10T13:08:11.886Z,5.08
2018-08-10T13:10:40.403Z,0.95
2018-08-10T13:13:08.953Z,2.72
2018-08-10T13:15:39.016Z,0.93
2018-08-10T13:18:07.422Z,1.67
2018-08-10T13:20:35.852Z,1.20
2018-08-10T13:23:04.376Z,1.02
2018-08-10T13:25:32.905Z,2.08
2018-08-10T13:28:01.290Z,1.10
2018-08-10T13:30:29.854Z,0.88
2018-08-10T13:32:58.266Z,3.08
2018-08-10T13:35:26.735Z,1.62
2018-08-10T13:37:55.072Z,1.25
2018-08-10T13:40:23.552Z,0.70
2018-08-10T13:42:51.930Z,0.53
2018-08-10T13:45:20.484Z,0.75
2018-08-10T13:47:48.863Z,1.77
2018-08-10T13:50:17.386Z,0.53
2018-08-10T13:52:46.084Z,0.90
2018-08-10T13:55:17.588Z,0.98
2018-08-10T13:57:46.825Z,1.52
2018-08-10T14:00:22.531Z,1.62
2018-08-10T14:02:53.161Z,2.37
2018-08-10T14:05:22.159Z,0.85
2018-08-10T14:07:51.148Z,1.27
2018-08-10T14:10:20.839Z,1.72
2018-08-10T14:12:49.201Z,1.52
2018-08-10T14:15:17.741Z,2.50
2018-08-10T14:17:46.198Z,0.65
2018-08-10T14:20:14.818Z,0.85
2018-08-10T14:22:43.209Z,1.52
2018-08-10T14:25:12.059Z,2.70
2018-08-10T14:27:40.530Z,2.75
2018-08-10T14:30:16.181Z,4.17
2018-08-10T14:32:44.642Z,2.22
2018-08-10T14:35:13.540Z,3.67
2018-08-10T14:37:41.999Z,0.70
2018-08-10T14:40:12.045Z,3.08
2018-08-10T14:42:40.644Z,2.70
2018-08-10T14:45:12.368Z,1.25
2018-08-10T14:47:41.041Z,1.05
2018-08-10T14:50:11.510Z,1.12
2018-08-10T14:52:40.123Z,0.75
2018-08-10T14:55:10.502Z,1.22
2018-08-10T14:57:39.324Z,1.82
2018-08-10T15:00:13.469Z,2.85
2018-08-10T15:02:42.217Z,3.05
2018-08-10T15:05:10.826Z,0.95
2018-08-10T15:07:39.284Z,1.60
2018-08-10T15:10:09.780Z,1.67
2018-08-10T15:12:38.900Z,0.90
2018-08-10T15:15:08.701Z,2.70
2018-08-10T15:17:37.504Z,2.67
2018-08-10T15:20:06.846Z,3.33
2018-08-10T15:22:35.232Z,3.72
2018-08-10T15:25:03.898Z,1.65
2018-08-10T15:27:32.320Z,1.42
2018-08-10T15:30:00.794Z,2.83
2018-08-10T15:32:29.360Z,2.05
2018-08-10T15:34:57.737Z,0.65
2018-08-10T15:37:26.454Z,1.22
2018-08-10T15:39:54.805Z,2.00
2018-08-10T15:42:23.210Z,2.10
2018-08-10T15:44:51.634Z,2.92
2018-08-10T15:47:20.041Z,2.35
2018-08-10T15:49:48.365Z,1.07
2018-08-10T15:52:16.759Z,1.10
2018-08-10T15:54:45.144Z,0.93
2018-08-10T15:57:13.708Z,1.52
2018-08-10T15:59:42.216Z,0.90
2018-08-10T16:02:10.649Z,1.27
2018-08-10T16:04:39.248Z,1.77
2018-08-10T16:07:07.925Z,0.82
2018-08-10T16:09:36.331Z,0.65
2018-08-10T16:12:04.665Z,3.67
2018-08-10T16:14:33.027Z,1.45
2018-08-10T16:17:01.404Z,1.40
2018-08-10T16:19:29.876Z,2.77
2018-08-10T16:21:58.277Z,1.27
2018-08-10T16:24:26.902Z,2.30
2018-08-10T16:26:55.550Z,2.08
2018-08-10T16:29:23.908Z,0.80
2018-08-10T16:31:52.260Z,0.90
2018-08-10T16:34:20.612Z,1.67
2018-08-10T16:36:49.045Z,1.12
2018-08-10T16:39:17.364Z,1.95
2018-08-10T16:41:45.863Z,2.00
2018-08-10T16:44:14.408Z,1.35
2018-08-10T16:46:42.824Z,1.30
2018-08-10T16:49:11.402Z,2.37
2018-08-10T16:51:39.756Z,1.72
2018-08-10T16:54:08.202Z,3.40
2018-08-10T16:56:36.600Z,3.72
2018-08-10T16:59:05.322Z,2.85
2018-08-10T17:01:33.684Z,1.90
2018-08-10T17:04:02.097Z,2.12
2018-08-10T17:06:30.440Z,3.00
2018-08-10T17:08:58.826Z,1.80
2018-08-10T17:11:27.223Z,1.20
2018-08-10T17:13:55.629Z,1.52
2018-08-10T17:16:24.423Z,2.37
2018-08-10T17:18:52.861Z,1.75
2018-08-10T17:21:21.248Z,1.82
2018-08-10T17:23:49.591Z,1.20
2018-08-10T17:26:18.083Z,2.37
2018-08-10T17:28:46.447Z,2.52
2018-08-10T17:31:14.847Z,3.02
2018-08-10T17:33:43.231Z,3.10
2018-08-10T17:36:11.734Z,1.40
2018-08-10T17:38:40.322Z,2.27
2018-08-10T17:41:08.815Z,2.80
2018-08-10T17:43:37.360Z,2.25
2018-08-10T17:46:05.892Z,3.52
2018-08-10T17:48:34.384Z,2.70
2018-08-10T17:51:02.864Z,2.08
2018-08-10T17:53:31.250Z,4.17
2018-08-10T17:55:59.628Z,2.65
2018-08-10T17:58:28.000Z,2.62
2018-08-10T18:00:56.546Z,2.30
2018-08-10T18:03:25.091Z,2.22
2018-08-10T18:05:53.659Z,2.25
2018-08-10T18:08:22.196Z,1.82
2018-08-10T18:10:50.744Z,1.98
2018-08-10T18:13:19.270Z,4.12
2018-08-10T18:15:47.738Z,3.02
2018-08-10T18:18:16.164Z,2.25
2018-08-10T18:20:44.555Z,2.75
2018-08-10T18:23:13.104Z,4.75
2018-08-10T18:25:41.464Z,2.87
2018-08-10T18:28:10.003Z,3.98
2018-08-10T18:30:38.458Z,2.45
2018-08-10T18:33:07.155Z,3.87
2018-08-10T18:35:35.716Z,3.62
2018-08-10T18:38:04.168Z,2.77
2018-08-10T18:40:32.760Z,5.40
2018-08-10T18:43:01.378Z,3.00
2018-08-10T18:45:29.926Z,2.05
2018-08-10T18:47:58.292Z,2.90
2018-08-10T18:50:26.763Z,4.55
2018-08-10T18:52:55.275Z,4.53
2018-08-10T18:55:24.250Z,4.05
2018-08-10T18:57:53.366Z,2.92
2018-08-10T19:00:25.254Z,2.65
2018-08-10T19:02:53.897Z,6.80
2018-08-10T19:05:22.299Z,3.80
2018-08-10T19:07:50.704Z,3.90
2018-08-10T19:10:23.932Z,3.35
2018-08-10T19:12:52.421Z,3.22
2018-08-10T19:15:21.228Z,4.00
2018-08-10T19:17:49.602Z,3.87
2018-08-10T19:20:18.033Z,3.87
2018-08-10T19:22:47.082Z,6.17
2018-08-10T19:25:16.092Z,6.28
2018-08-10T19:27:44.362Z,5.10
2018-08-10T19:30:17.082Z,3.47
2018-08-10T19:32:46.322Z,4.28
2018-08-10T19:35:14.893Z,3.12
2018-08-10T19:37:43.457Z,3.77
2018-08-10T19:40:16.693Z,6.12
2018-08-10T19:42:45.142Z,5.05
2018-08-10T19:45:14.454Z,6.75
2018-08-10T19:47:42.907Z,3.50
2018-08-10T19:50:12.984Z,3.55
2018-08-10T19:52:41.560Z,14.73
2018-08-10T19:55:11.627Z,6.22
2018-08-10T19:57:40.319Z,5.00
2018-08-10T20:00:10.746Z,4.58
2018-08-10T20:02:39.096Z,8.23
2018-08-10T20:05:08.552Z,4.50
2018-08-10T20:07:36.960Z,4.15
2018-08-10T20:10:06.585Z,5.90
2018-08-10T20:12:35.572Z,4.67
2018-08-10T20:15:04.863Z,2.55
2018-08-10T20:17:33.340Z,2.47
2018-08-10T20:20:01.726Z,4.33
2018-08-10T20:22:30.136Z,6.33
2018-08-10T20:24:58.841Z,2.20
2018-08-10T20:27:27.416Z,4.40
2018-08-10T20:29:55.938Z,2.72
2018-08-10T20:32:24.483Z,3.12
2018-08-10T20:34:52.848Z,4.53
2018-08-10T20:37:21.188Z,2.85
2018-08-10T20:39:49.572Z,3.60
2018-08-10T20:42:18.015Z,2.70
2018-08-10T20:44:46.452Z,3.75
2018-08-10T20:47:14.952Z,3.45
2018-08-10T20:49:43.446Z,4.17
2018-08-10T20:52:11.838Z,3.45
2018-08-10T20:54:40.256Z,5.15
2018-08-10T20:57:08.675Z,2.90
2018-08-10T20:59:37.145Z,2.33
2018-08-10T21:02:05.673Z,3.40
2018-08-10T21:04:34.076Z,2.52
2018-08-10T21:07:02.962Z,3.42
2018-08-10T21:09:31.335Z,3.12
2018-08-10T21:11:59.683Z,2.08
2018-08-10T21:14:28.055Z,3.45
2018-08-10T21:16:56.431Z,4.28
2018-08-10T21:19:24.963Z,2.05
2018-08-10T21:21:53.322Z,1.95
2018-08-10T21:24:21.801Z,2.17
2018-08-10T21:26:50.237Z,2.45
2018-08-10T21:29:18.640Z,2.45
2018-08-10T21:31:47.073Z,2.08
2018-08-10T21:34:15.433Z,2.95
2018-08-10T21:36:43.791Z,2.05
2018-08-10T21:39:13.377Z,1.80
2018-08-10T21:41:41.764Z,2.20
2018-08-10T21:44:10.423Z,1.98
2018-08-10T21:46:38.793Z,2.92
2018-08-10T21:49:07.499Z,1.57
2018-08-10T21:51:35.951Z,2.65
2018-08-10T21:54:04.411Z,1.70
2018-08-10T21:56:32.775Z,2.40
2018-08-10T21:59:01.102Z,1.47
2018-08-10T22:01:29.519Z,1.57
2018-08-10T22:03:57.865Z,2.70
2018-08-10T22:06:26.247Z,2.17
2018-08-10T22:08:54.623Z,5.00
2018-08-10T22:11:23.116Z,2.65
2018-08-10T22:13:56.811Z,2.58
2018-08-10T22:16:30.628Z,2.27
2018-08-10T22:19:04.331Z,3.47
2018-08-10T22:21:32.787Z,1.60
2018-08-10T22:24:01.196Z,1.42
2018-08-10T22:26:29.637Z,1.57
2018-08-10T22:28:57.985Z,1.65
2018-08-10T22:31:26.395Z,1.25
2018-08-10T22:33:54.849Z,1.35
2018-08-10T22:36:23.247Z,1.57
2018-08-10T22:38:51.618Z,1.82
2018-08-10T22:41:19.990Z,2.83
2018-08-10T22:43:48.321Z,1.72
2018-08-10T22:46:17.168Z,2.45
2018-08-10T22:48:45.514Z,3.25
2018-08-10T22:51:13.984Z,2.75
2018-08-10T22:53:42.408Z,2.70
2018-08-10T22:56:10.742Z,2.90
2018-08-10T22:58:39.070Z,3.45
2018-08-10T23:01:07.661Z,3.52
2018-08-10T23:03:36.266Z,3.40
2018-08-10T23:06:04.649Z,3.15
2018-08-10T23:08:33.433Z,4.17
2018-08-10T23:11:01.962Z,3.55
2018-08-10T23:13:30.537Z,3.02
2018-08-10T23:15:59.029Z,4.35
2018-08-10T23:18:27.408Z,4.28
2018-08-10T23:20:55.783Z,2.92
2018-08-10T23:23:24.256Z,2.60
2018-08-10T23:25:52.615Z,3.10
2018-08-10T23:28:20.949Z,4.70
2018-08-10T23:30:49.339Z,3.83
2018-08-10T23:33:17.673Z,5.78
2018-08-10T23:35:46.031Z,4.70
2018-08-10T23:38:14.387Z,8.28
2018-08-10T23:40:42.835Z,8.43
2018-08-10T23:43:11.322Z,8.50
2018-08-10T23:45:39.672Z,6.83
2018-08-10T23:48:08.083Z,9.70
2018-08-10T23:50:36.628Z,6.78
2018-08-10T23:53:05.213Z,5.87
2018-08-10T23:55:33.580Z,6.25
2018-08-10T23:58:01.996Z,6.12
